createdAt,value
2022-09-05T00:01:17.268Z,98420.47
2022-09-05T00:06:36.987Z,98430.97
2022-09-05T00:11:51.172Z,98423.34
2022-09-05T00:17:04.822Z,98418.78
2022-09-05T00:22:12.975Z,98419.47
2022-09-05T00:27:53.621Z,98414.22
2022-09-05T00:33:26.943Z,98419.47
2022-09-05T00:38:37.006Z,98421.91
2022-09-05T00:43:47.173Z,98399.44
2022-09-05T00:48:57.353Z,98420.78
2022-09-05T00:54:02.741Z,98411.31
2022-09-05T00:59:29.200Z,98423.19
2022-09-05T01:04:56.286Z,98426.84
2022-09-05T01:10:35.166Z,98425.78
2022-09-05T01:16:05.061Z,98425.34
2022-09-05T01:21:32.555Z,98423.84
2022-09-05T01:26:51.074Z,98406.22
2022-09-05T01:32:20.937Z,98406.03
2022-09-05T01:37:37.430Z,98409.41
2022-09-05T01:42:57.069Z,98392.59
2022-09-05T01:48:13.824Z,98403.09
2022-09-05T01:54:00.515Z,98385.34
2022-09-05T01:59:24.511Z,98391.91
2022-09-05T02:05:11.567Z,98398.63
2022-09-05T02:10:37.603Z,98406.63
2022-09-05T02:16:12.437Z,98405.66
2022-09-05T02:21:56.931Z,98394.72
2022-09-05T02:27:31.868Z,98392.06
2022-09-05T02:33:02.470Z,98390.69
2022-09-05T02:39:24.061Z,98389.00
2022-09-05T02:45:13.857Z,98395.16
2022-09-05T02:49:45.077Z,98385.53
2022-09-05T02:57:43.480Z,98389.72
2022-09-05T03:00:25.482Z,98389.28
2022-09-05T03:05:40.048Z,98380.38
2022-09-05T03:11:02.297Z,98384.69
2022-09-05T03:16:28.941Z,98381.91
2022-09-05T03:22:16.127Z,98375.94
2022-09-05T03:27:48.452Z,98378.81
2022-09-05T03:32:53.749Z,98374.91
2022-09-05T03:39:02.563Z,98377.06
2022-09-05T03:44:23.730Z,98377.88
2022-09-05T03:51:09.291Z,98390.84
2022-09-05T03:57:19.054Z,98388.72
2022-09-05T04:00:36.488Z,98391.78
2022-09-05T04:08:26.185Z,98386.84
2022-09-05T04:11:35.729Z,98395.31
2022-09-05T04:17:27.480Z,98393.19
2022-09-05T04:22:48.498Z,98389.59
2022-09-05T04:28:14.698Z,98392.59
2022-09-05T04:33:36.161Z,98383.94
2022-09-05T04:38:44.673Z,98390.50
2022-09-05T04:43:51.140Z,98389.53
2022-09-05T04:49:24.355Z,98390.03
2022-09-05T04:54:33.222Z,98401.81
2022-09-05T05:06:05.502Z,98402.47
2022-09-05T05:06:17.111Z,98403.06
2022-09-05T05:17:54.142Z,98414.63
2022-09-05T05:18:14.370Z,98421.22
2022-09-05T05:22:18.392Z,98430.81
2022-09-05T05:27:46.954Z,98429.66
2022-09-05T05:32:54.891Z,98434.06
2022-09-05T05:38:15.609Z,98431.22
2022-09-05T05:43:36.468Z,98447.00
2022-09-05T05:48:44.161Z,98438.22
2022-09-05T05:53:57.518Z,98439.03
2022-09-05T05:59:37.499Z,98445.69
2022-09-05T06:05:11.295Z,98451.00
2022-09-05T06:14:48.638Z,98463.63
2022-09-05T06:16:47.880Z,98455.53
2022-09-05T06:22:15.781Z,98458.06
2022-09-05T06:28:05.559Z,98469.06
2022-09-05T06:33:54.052Z,98456.41
2022-09-05T06:39:05.356Z,98462.38
2022-09-05T06:44:41.400Z,98460.59
2022-09-05T06:49:56.024Z,98458.63
2022-09-05T06:55:08.621Z,98464.84
2022-09-05T07:00:39.024Z,98464.44
2022-09-05T07:06:19.824Z,98463.28
2022-09-05T07:11:44.896Z,98460.75
2022-09-05T07:16:58.327Z,98465.88
2022-09-05T07:22:00.687Z,98452.81
2022-09-05T07:27:09.042Z,98459.72
2022-09-05T07:32:22.386Z,98467.50
2022-09-05T07:37:41.949Z,98462.63
2022-09-05T07:43:09.531Z,98452.16
2022-09-05T07:48:34.160Z,98461.00
2022-09-05T07:57:08.503Z,98458.34
2022-09-05T07:59:08.555Z,98455.72
2022-09-05T08:04:23.304Z,98462.06
2022-09-05T08:10:06.175Z,98455.75
2022-09-05T08:14:53.854Z,98460.38
2022-09-05T08:20:28.935Z,98453.97
2022-09-05T08:25:58.999Z,98457.69
2022-09-05T08:31:24.423Z,98448.63
2022-09-05T08:36:36.395Z,98450.88
2022-09-05T08:42:07.825Z,98446.31
2022-09-05T08:47:22.211Z,98444.91
2022-09-05T08:52:42.424Z,98436.66
2022-09-05T08:58:06.281Z,98439.91
2022-09-05T09:03:34.711Z,98444.34
2022-09-05T09:09:13.051Z,98434.00
2022-09-05T09:14:33.596Z,98438.97
2022-09-05T09:20:14.877Z,98445.47
2022-09-05T09:25:23.642Z,98433.31
2022-09-05T09:30:32.268Z,98437.19
2022-09-05T09:35:53.026Z,98429.88
2022-09-05T09:41:27.018Z,98420.47
2022-09-05T09:46:47.717Z,98422.16
2022-09-05T09:52:20.768Z,98416.53
2022-09-05T09:57:29.784Z,98410.66
2022-09-05T10:06:40.781Z,98410.34
2022-09-05T10:10:47.867Z,98412.25
2022-09-05T10:14:47.796Z,98408.63
2022-09-05T10:20:18.082Z,98401.28
2022-09-05T10:25:21.407Z,98404.25
2022-09-05T10:31:39.842Z,98393.34
2022-09-05T10:36:23.449Z,98389.13
2022-09-05T10:41:39.555Z,98375.28
2022-09-05T10:46:51.261Z,98358.72
2022-09-05T10:52:18.229Z,98355.59
2022-09-05T10:57:54.454Z,98351.81
2022-09-05T11:03:00.980Z,98348.03
2022-09-05T11:08:15.093Z,98346.78
2022-09-05T11:13:50.045Z,98333.72
2022-09-05T11:19:00.833Z,98340.59
2022-09-05T11:24:32.094Z,98336.50
2022-09-05T11:29:46.420Z,98331.84
2022-09-05T11:40:00.117Z,98324.31
2022-09-05T11:41:13.392Z,98321.44
2022-09-05T11:46:25.375Z,98325.34
2022-09-05T11:51:55.235Z,98322.06
2022-09-05T11:57:02.224Z,98316.41
2022-09-05T12:02:32.762Z,98319.78
2022-09-05T12:08:00.287Z,98314.44
2022-09-05T12:13:08.967Z,98316.66
2022-09-05T12:18:26.086Z,98297.16
2022-09-05T12:24:36.787Z,98288.00
2022-09-05T12:29:34.243Z,98288.00
2022-09-05T12:36:10.173Z,98286.72
2022-09-05T12:41:39.049Z,98289.69
2022-09-05T12:46:24.491Z,98289.47
2022-09-05T12:51:45.826Z,98276.94
2022-09-05T13:02:55.479Z,98270.25
2022-09-05T13:03:14.502Z,98262.97
2022-09-05T13:08:21.029Z,98262.22
2022-09-05T13:14:58.749Z,98251.81
2022-09-05T13:19:04.467Z,98247.47
2022-09-05T13:24:14.517Z,98251.81
2022-09-05T13:29:21.785Z,98244.81
2022-09-05T13:38:02.656Z,98229.53
2022-09-05T13:40:12.399Z,98235.91
2022-09-05T13:45:18.737Z,98222.69
2022-09-05T13:50:26.792Z,98218.72
2022-09-05T13:56:00.497Z,98205.16
2022-09-05T14:01:12.149Z,98205.81
2022-09-05T14:06:52.055Z,98201.34
2022-09-05T14:12:26.959Z,98193.34
2022-09-05T14:17:53.688Z,98188.16
2022-09-05T14:23:08.985Z,98176.94
2022-09-05T14:28:39.800Z,98176.66
2022-09-05T14:37:46.539Z,98185.84
2022-09-05T14:39:41.000Z,98182.13
2022-09-05T14:45:08.457Z,98173.50
2022-09-05T14:50:28.144Z,98168.56
2022-09-05T14:55:31.121Z,98170.94
2022-09-05T15:02:51.313Z,98167.50
2022-09-05T15:06:28.107Z,98167.66
2022-09-05T15:12:23.425Z,98165.34
2022-09-05T15:17:05.715Z,98160.44
2022-09-05T15:22:27.455Z,98155.28
2022-09-05T15:27:30.983Z,98150.34
2022-09-05T15:32:38.060Z,98150.66
2022-09-05T15:37:42.999Z,98143.66
2022-09-05T15:42:57.878Z,98135.38
2022-09-05T15:48:22.175Z,98129.25
2022-09-05T15:53:29.377Z,98126.78
2022-09-05T15:58:52.643Z,98135.44
2022-09-05T16:07:20.944Z,98126.44
2022-09-05T16:10:41.288Z,98121.94
2022-09-05T16:15:37.983Z,98130.75
2022-09-05T16:23:26.019Z,98127.31
2022-09-05T16:26:01.085Z,98125.00
2022-09-05T16:31:15.820Z,98126.97
2022-09-05T16:36:32.727Z,98111.41
2022-09-05T16:41:58.866Z,98111.25
2022-09-05T16:47:29.829Z,98115.63
2022-09-05T16:52:54.036Z,98114.66
2022-09-05T16:58:23.293Z,98107.53
2022-09-05T17:03:34.568Z,98098.13
2022-09-05T17:08:37.416Z,98105.78
2022-09-05T17:13:43.504Z,98100.53
2022-09-05T17:18:51.090Z,98099.72
2022-09-05T17:29:16.083Z,98094.81
2022-09-05T17:35:18.131Z,98098.41
2022-09-05T17:41:02.104Z,98105.41
2022-09-05T17:46:16.301Z,98102.13
2022-09-05T17:51:27.938Z,98102.25
2022-09-05T17:56:40.685Z,98100.63
2022-09-05T18:02:03.322Z,98106.00
2022-09-05T18:07:25.849Z,98117.91
2022-09-05T18:13:12.985Z,98121.75
2022-09-05T18:18:31.345Z,98112.44
2022-09-05T18:23:51.695Z,98118.22
2022-09-05T18:29:16.574Z,98118.03
2022-09-05T18:34:19.105Z,98128.13
2022-09-05T18:39:24.812Z,98137.41
2022-09-05T18:44:31.012Z,98137.16
2022-09-05T18:50:24.739Z,98145.78
2022-09-05T18:56:11.162Z,98147.44
2022-09-05T19:00:46.768Z,98143.97
2022-09-05T19:06:36.887Z,98147.22
2022-09-05T19:12:16.213Z,98153.25
2022-09-05T19:17:50.600Z,98151.53
2022-09-05T19:23:10.210Z,98151.34
2022-09-05T19:36:44.369Z,98151.53
2022-09-05T19:36:55.087Z,98145.75
2022-09-05T19:44:41.318Z,98142.19
2022-09-05T19:47:38.548Z,98139.81
2022-09-05T19:50:24.315Z,98132.03
2022-09-05T19:55:28.208Z,98130.78
2022-09-05T20:00:31.639Z,98117.09
2022-09-05T20:05:40.343Z,98127.94
2022-09-05T20:10:43.105Z,98115.72
2022-09-05T20:15:45.614Z,98106.94
2022-09-05T20:21:25.953Z,98110.25
2022-09-05T20:26:33.666Z,98113.22
2022-09-05T20:31:37.595Z,98096.59
2022-09-05T20:43:09.198Z,98103.72
2022-09-05T20:43:32.029Z,98105.81
2022-09-05T20:54:04.395Z,98107.47
2022-09-05T20:54:31.620Z,98116.75
2022-09-05T20:58:58.512Z,98124.59
2022-09-05T21:04:05.763Z,98128.97
2022-09-05T21:09:25.752Z,98117.91
2022-09-05T21:14:29.791Z,98125.59
2022-09-05T21:19:34.080Z,98110.75
2022-09-05T21:24:37.053Z,98113.28
2022-09-05T21:29:39.780Z,98112.25
2022-09-05T21:34:49.025Z,98116.78
2022-09-05T21:40:00.223Z,98124.94
2022-09-05T21:47:37.715Z,98110.53
2022-09-05T21:50:31.262Z,98112.25
2022-09-05T21:59:21.902Z,98123.69
2022-09-05T22:00:57.923Z,98114.31
2022-09-05T22:06:03.929Z,98116.63
2022-09-05T22:11:11.486Z,98108.19
2022-09-05T22:16:15.388Z,98102.44
2022-09-05T22:21:32.607Z,98110.88
2022-09-05T22:27:06.296Z,98107.00
2022-09-05T22:32:07.259Z,98089.69
2022-09-05T22:37:09.735Z,98092.13
2022-09-05T22:42:12.209Z,98094.00
2022-09-05T22:47:14.847Z,98090.13
2022-09-05T22:52:17.591Z,98095.09
2022-09-05T22:57:20.090Z,98098.88
2022-09-05T23:02:22.538Z,98105.50
2022-09-05T23:07:25.012Z,98097.69
2022-09-05T23:12:27.450Z,98093.63
2022-09-05T23:17:30.171Z,98099.53
2022-09-05T23:22:35.188Z,98092.06
2022-09-05T23:27:38.205Z,98100.69
2022-09-05T23:32:48.377Z,98088.69
2022-09-05T23:37:51.270Z,98094.53
2022-09-05T23:42:55.735Z,98082.41
2022-09-05T23:47:58.894Z,98082.97
2022-09-05T23:53:04.265Z,98081.44
2022-09-05T23:58:06.837Z,98074.78
